sensor_id;sensor_type;location;lat;lon;timestamp;temperature;humidity
61386;DHT22;47256;18.904;-99.054;2024-02-23T00:01:09;28.40;56.20
61386;DHT22;47256;18.904;-99.054;2024-02-23T00:03:38;28.40;56.40
61386;DHT22;47256;18.904;-99.054;2024-02-23T00:06:07;28.30;56.70
61386;DHT22;47256;18.904;-99.054;2024-02-23T00:08:36;28.20;57.00
61386;DHT22;47256;18.904;-99.054;2024-02-23T00:11:08;28.10;58.50
61386;DHT22;47256;18.904;-99.054;2024-02-23T00:13:35;28.10;59.90
61386;DHT22;47256;18.904;-99.054;2024-02-23T00:16:05;28.00;60.10
61386;DHT22;47256;18.904;-99.054;2024-02-23T00:18:35;27.90;60.20
61386;DHT22;47256;18.904;-99.054;2024-02-23T00:21:06;27.90;60.50
61386;DHT22;47256;18.904;-99.054;2024-02-23T00:23:36;27.80;60.70
61386;DHT22;47256;18.904;-99.054;2024-02-23T00:26:04;27.80;61.10
61386;DHT22;47256;18.904;-99.054;2024-02-23T00:28:35;27.70;62.40
61386;DHT22;47256;18.904;-99.054;2024-02-23T00:31:03;27.60;64.50
61386;DHT22;47256;18.904;-99.054;2024-02-23T00:33:36;27.50;64.90
61386;DHT22;47256;18.904;-99.054;2024-02-23T00:36:05;27.40;65.70
61386;DHT22;47256;18.904;-99.054;2024-02-23T00:38:38;27.30;64.90
61386;DHT22;47256;18.904;-99.054;2024-02-23T00:41:09;27.30;64.40
61386;DHT22;47256;18.904;-99.054;2024-02-23T00:43:43;27.20;62.60
61386;DHT22;47256;18.904;-99.054;2024-02-23T00:46:11;27.10;64.10
61386;DHT22;47256;18.904;-99.054;2024-02-23T00:48:39;27.00;65.30
61386;DHT22;47256;18.904;-99.054;2024-02-23T00:51:12;26.90;64.70
61386;DHT22;47256;18.904;-99.054;2024-02-23T00:53:39;26.80;65.30
61386;DHT22;47256;18.904;-99.054;2024-02-23T00:56:08;26.70;66.70
61386;DHT22;47256;18.904;-99.054;2024-02-23T00:58:36;26.60;67.20
61386;DHT22;47256;18.904;-99.054;2024-02-23T01:01:07;26.60;68.60
61386;DHT22;47256;18.904;-99.054;2024-02-23T01:03:35;26.50;70.30
61386;DHT22;47256;18.904;-99.054;2024-02-23T01:06:04;26.50;68.30
61386;DHT22;47256;18.904;-99.054;2024-02-23T01:08:32;26.40;70.90
61386;DHT22;47256;18.904;-99.054;2024-02-23T01:11:01;26.20;69.50
61386;DHT22;47256;18.904;-99.054;2024-02-23T01:13:29;26.20;67.20
61386;DHT22;47256;18.904;-99.054;2024-02-23T01:15:56;26.20;70.50
61386;DHT22;47256;18.904;-99.054;2024-02-23T01:18:26;26.10;71.00
61386;DHT22;47256;18.904;-99.054;2024-02-23T01:20:59;26.00;70.00
61386;DHT22;47256;18.904;-99.054;2024-02-23T01:23:29;26.00;68.40
61386;DHT22;47256;18.904;-99.054;2024-02-23T01:25:56;25.90;70.80
61386;DHT22;47256;18.904;-99.054;2024-02-23T01:28:25;25.90;71.90
61386;DHT22;47256;18.904;-99.054;2024-02-23T01:30:53;25.70;70.40
61386;DHT22;47256;18.904;-99.054;2024-02-23T01:33:20;25.70;67.70
61386;DHT22;47256;18.904;-99.054;2024-02-23T01:35:48;25.70;70.30
61386;DHT22;47256;18.904;-99.054;2024-02-23T01:38:19;25.60;69.50
61386;DHT22;47256;18.904;-99.054;2024-02-23T01:40:58;25.60;69.40
61386;DHT22;47256;18.904;-99.054;2024-02-23T01:43:25;25.60;67.70
61386;DHT22;47256;18.904;-99.054;2024-02-23T01:45:56;25.60;66.20
61386;DHT22;47256;18.904;-99.054;2024-02-23T01:48:23;25.60;66.50
61386;DHT22;47256;18.904;-99.054;2024-02-23T01:51:02;25.50;66.30
61386;DHT22;47256;18.904;-99.054;2024-02-23T01:53:33;25.50;66.50
61386;DHT22;47256;18.904;-99.054;2024-02-23T01:56:00;25.50;65.70
61386;DHT22;47256;18.904;-99.054;2024-02-23T01:58:35;25.50;66.20
61386;DHT22;47256;18.904;-99.054;2024-02-23T02:01:07;25.40;65.90
61386;DHT22;47256;18.904;-99.054;2024-02-23T02:03:35;25.40;65.50
61386;DHT22;47256;18.904;-99.054;2024-02-23T02:06:10;25.30;66.20
61386;DHT22;47256;18.904;-99.054;2024-02-23T02:08:38;25.30;69.60
61386;DHT22;47256;18.904;-99.054;2024-02-23T02:11:08;25.20;70.10
61386;DHT22;47256;18.904;-99.054;2024-02-23T02:13:37;25.10;73.30
61386;DHT22;47256;18.904;-99.054;2024-02-23T02:16:07;24.90;73.50
61386;DHT22;47256;18.904;-99.054;2024-02-23T02:18:35;24.80;72.50
61386;DHT22;47256;18.904;-99.054;2024-02-23T02:21:08;24.80;71.60
61386;DHT22;47256;18.904;-99.054;2024-02-23T02:23:39;24.70;72.80
61386;DHT22;47256;18.904;-99.054;2024-02-23T02:26:09;24.70;73.80
61386;DHT22;47256;18.904;-99.054;2024-02-23T02:28:36;24.60;75.50
61386;DHT22;47256;18.904;-99.054;2024-02-23T02:31:04;24.60;73.70
61386;DHT22;47256;18.904;-99.054;2024-02-23T02:33:34;24.50;73.10
61386;DHT22;47256;18.904;-99.054;2024-02-23T02:36:02;24.60;71.50
61386;DHT22;47256;18.904;-99.054;2024-02-23T02:38:29;24.60;70.50
61386;DHT22;47256;18.904;-99.054;2024-02-23T02:40:59;24.60;70.50
61386;DHT22;47256;18.904;-99.054;2024-02-23T02:43:32;24.60;71.10
61386;DHT22;47256;18.904;-99.054;2024-02-23T02:45:59;24.60;70.40
61386;DHT22;47256;18.904;-99.054;2024-02-23T02:48:27;24.60;70.70
61386;DHT22;47256;18.904;-99.054;2024-02-23T02:51:01;24.50;70.40
61386;DHT22;47256;18.904;-99.054;2024-02-23T02:53:35;24.50;70.20
61386;DHT22;47256;18.904;-99.054;2024-02-23T02:56:06;24.40;69.80
61386;DHT22;47256;18.904;-99.054;2024-02-23T02:58:33;24.40;70.40
61386;DHT22;47256;18.904;-99.054;2024-02-23T03:01:01;24.40;71.50
61386;DHT22;47256;18.904;-99.054;2024-02-23T03:03:30;24.30;75.00
61386;DHT22;47256;18.904;-99.054;2024-02-23T03:06:01;24.30;74.10
61386;DHT22;47256;18.904;-99.054;2024-02-23T03:08:29;24.20;73.00
61386;DHT22;47256;18.904;-99.054;2024-02-23T03:11:01;24.20;73.30
61386;DHT22;47256;18.904;-99.054;2024-02-23T03:13:39;24.20;73.90
61386;DHT22;47256;18.904;-99.054;2024-02-23T03:16:13;24.10;77.00
61386;DHT22;47256;18.904;-99.054;2024-02-23T03:18:41;24.00;76.20
61386;DHT22;47256;18.904;-99.054;2024-02-23T03:21:15;23.90;74.50
61386;DHT22;47256;18.904;-99.054;2024-02-23T03:23:48;23.90;75.40
61386;DHT22;47256;18.904;-99.054;2024-02-23T03:26:21;23.90;75.30
61386;DHT22;47256;18.904;-99.054;2024-02-23T03:28:48;23.90;74.80
61386;DHT22;47256;18.904;-99.054;2024-02-23T03:31:15;23.90;74.60
61386;DHT22;47256;18.904;-99.054;2024-02-23T03:33:48;23.90;75.10
61386;DHT22;47256;18.904;-99.054;2024-02-23T03:36:15;23.80;76.30
61386;DHT22;47256;18.904;-99.054;2024-02-23T03:38:47;23.70;77.90
61386;DHT22;47256;18.904;-99.054;2024-02-23T03:41:18;23.60;76.70
61386;DHT22;47256;18.904;-99.054;2024-02-23T03:43:45;23.50;75.80
61386;DHT22;47256;18.904;-99.054;2024-02-23T03:46:12;23.30;74.60
61386;DHT22;47256;18.904;-99.054;2024-02-23T03:48:41;23.20;75.20
61386;DHT22;47256;18.904;-99.054;2024-02-23T03:51:19;23.20;79.00
61386;DHT22;47256;18.904;-99.054;2024-02-23T03:53:52;23.10;78.00
61386;DHT22;47256;18.904;-99.054;2024-02-23T03:56:25;23.10;77.10
61386;DHT22;47256;18.904;-99.054;2024-02-23T03:58:55;23.20;76.70
61386;DHT22;47256;18.904;-99.054;2024-02-23T04:01:32;23.20;76.60
61386;DHT22;47256;18.904;-99.054;2024-02-23T04:04:11;23.10;78.60
61386;DHT22;47256;18.904;-99.054;2024-02-23T04:06:40;23.00;79.80
61386;DHT22;47256;18.904;-99.054;2024-02-23T04:09:17;23.00;78.40
61386;DHT22;47256;18.904;-99.054;2024-02-23T04:11:50;22.90;76.80
61386;DHT22;47256;18.904;-99.054;2024-02-23T04:14:20;22.90;79.40
61386;DHT22;47256;18.904;-99.054;2024-02-23T04:16:48;22.80;79.60
61386;DHT22;47256;18.904;-99.054;2024-02-23T04:19:15;22.70;79.60
61386;DHT22;47256;18.904;-99.054;2024-02-23T04:21:45;22.70;80.60
61386;DHT22;47256;18.904;-99.054;2024-02-23T04:24:19;22.60;80.20
61386;DHT22;47256;18.904;-99.054;2024-02-23T04:26:52;22.70;80.70
61386;DHT22;47256;18.904;-99.054;2024-02-23T04:29:22;22.60;78.10
61386;DHT22;47256;18.904;-99.054;2024-02-23T04:31:50;22.60;78.00
61386;DHT22;47256;18.904;-99.054;2024-02-23T04:34:20;22.50;77.20
61386;DHT22;47256;18.904;-99.054;2024-02-23T04:36:54;22.50;77.80
61386;DHT22;47256;18.904;-99.054;2024-02-23T04:39:21;22.50;77.50
61386;DHT22;47256;18.904;-99.054;2024-02-23T04:41:50;22.50;74.90
61386;DHT22;47256;18.904;-99.054;2024-02-23T04:44:24;22.50;74.00
61386;DHT22;47256;18.904;-99.054;2024-02-23T04:47:00;22.60;72.70
61386;DHT22;47256;18.904;-99.054;2024-02-23T04:49:29;22.60;72.60
61386;DHT22;47256;18.904;-99.054;2024-02-23T04:51:59;22.60;73.00
61386;DHT22;47256;18.904;-99.054;2024-02-23T04:54:28;22.50;71.10
61386;DHT22;47256;18.904;-99.054;2024-02-23T04:56:58;22.40;71.00
61386;DHT22;47256;18.904;-99.054;2024-02-23T04:59:26;22.40;72.90
61386;DHT22;47256;18.904;-99.054;2024-02-23T05:01:55;22.20;72.90
61386;DHT22;47256;18.904;-99.054;2024-02-23T05:04:28;22.20;71.90
61386;DHT22;47256;18.904;-99.054;2024-02-23T05:07:06;22.20;72.30
61386;DHT22;47256;18.904;-99.054;2024-02-23T05:09:42;22.20;72.50
61386;DHT22;47256;18.904;-99.054;2024-02-23T05:12:15;22.20;72.30
61386;DHT22;47256;18.904;-99.054;2024-02-23T05:14:45;22.20;73.20
61386;DHT22;47256;18.904;-99.054;2024-02-23T05:17:22;22.20;74.20
61386;DHT22;47256;18.904;-99.054;2024-02-23T05:19:59;22.20;76.00
61386;DHT22;47256;18.904;-99.054;2024-02-23T05:22:42;22.20;76.70
61386;DHT22;47256;18.904;-99.054;2024-02-23T05:25:10;22.10;77.50
61386;DHT22;47256;18.904;-99.054;2024-02-23T05:27:37;22.00;78.30
61386;DHT22;47256;18.904;-99.054;2024-02-23T05:30:13;21.90;78.80
61386;DHT22;47256;18.904;-99.054;2024-02-23T05:33:06;21.90;78.50
61386;DHT22;47256;18.904;-99.054;2024-02-23T05:35:44;21.70;81.10
61386;DHT22;47256;18.904;-99.054;2024-02-23T05:38:21;21.60;80.30
61386;DHT22;47256;18.904;-99.054;2024-02-23T05:40:58;21.50;79.50
61386;DHT22;47256;18.904;-99.054;2024-02-23T05:43:32;21.50;79.20
61386;DHT22;47256;18.904;-99.054;2024-02-23T05:46:02;21.50;80.00
61386;DHT22;47256;18.904;-99.054;2024-02-23T05:48:34;21.50;80.80
61386;DHT22;47256;18.904;-99.054;2024-02-23T05:51:03;21.50;81.70
61386;DHT22;47256;18.904;-99.054;2024-02-23T05:53:35;21.40;82.90
61386;DHT22;47256;18.904;-99.054;2024-02-23T05:56:17;21.30;83.00
61386;DHT22;47256;18.904;-99.054;2024-02-23T05:58:46;21.10;84.10
61386;DHT22;47256;18.904;-99.054;2024-02-23T06:01:17;21.00;84.20
61386;DHT22;47256;18.904;-99.054;2024-02-23T06:03:46;21.00;84.40
61386;DHT22;47256;18.904;-99.054;2024-02-23T06:06:22;21.10;84.60
61386;DHT22;47256;18.904;-99.054;2024-02-23T06:08:50;21.00;84.20
61386;DHT22;47256;18.904;-99.054;2024-02-23T06:11:20;21.10;83.60
61386;DHT22;47256;18.904;-99.054;2024-02-23T06:13:50;21.10;83.60
61386;DHT22;47256;18.904;-99.054;2024-02-23T06:16:26;21.10;84.70
61386;DHT22;47256;18.904;-99.054;2024-02-23T06:19:16;21.20;84.30
61386;DHT22;47256;18.904;-99.054;2024-02-23T06:21:50;21.10;83.60
61386;DHT22;47256;18.904;-99.054;2024-02-23T06:24:29;21.00;84.00
61386;DHT22;47256;18.904;-99.054;2024-02-23T06:27:00;21.00;83.90
61386;DHT22;47256;18.904;-99.054;2024-02-23T06:29:27;21.00;83.50
61386;DHT22;47256;18.904;-99.054;2024-02-23T06:31:55;21.10;82.80
61386;DHT22;47256;18.904;-99.054;2024-02-23T06:34:25;21.10;81.90
61386;DHT22;47256;18.904;-99.054;2024-02-23T06:36:55;21.10;82.50
61386;DHT22;47256;18.904;-99.054;2024-02-23T06:39:28;20.90;83.50
61386;DHT22;47256;18.904;-99.054;2024-02-23T06:41:56;21.00;83.70
61386;DHT22;47256;18.904;-99.054;2024-02-23T06:44:27;20.90;83.90
61386;DHT22;47256;18.904;-99.054;2024-02-23T06:47:00;20.90;83.40
61386;DHT22;47256;18.904;-99.054;2024-02-23T06:49:30;20.90;82.80
61386;DHT22;47256;18.904;-99.054;2024-02-23T06:52:03;20.90;83.60
61386;DHT22;47256;18.904;-99.054;2024-02-23T06:54:34;20.80;84.50
61386;DHT22;47256;18.904;-99.054;2024-02-23T06:57:10;20.70;84.50
61386;DHT22;47256;18.904;-99.054;2024-02-23T06:59:37;20.70;83.90
61386;DHT22;47256;18.904;-99.054;2024-02-23T07:02:05;20.70;82.40
61386;DHT22;47256;18.904;-99.054;2024-02-23T07:04:33;20.70;82.60
61386;DHT22;47256;18.904;-99.054;2024-02-23T07:07:04;20.60;82.90
61386;DHT22;47256;18.904;-99.054;2024-02-23T07:09:34;20.50;82.20
61386;DHT22;47256;18.904;-99.054;2024-02-23T07:12:05;20.50;81.90
61386;DHT22;47256;18.904;-99.054;2024-02-23T07:14:35;20.50;81.80
61386;DHT22;47256;18.904;-99.054;2024-02-23T07:17:07;20.60;82.50
61386;DHT22;47256;18.904;-99.054;2024-02-23T07:19:43;20.40;83.20
61386;DHT22;47256;18.904;-99.054;2024-02-23T07:22:11;20.20;83.70
61386;DHT22;47256;18.904;-99.054;2024-02-23T07:24:43;20.20;82.40
61386;DHT22;47256;18.904;-99.054;2024-02-23T07:27:14;20.20;81.70
61386;DHT22;47256;18.904;-99.054;2024-02-23T07:29:52;20.30;81.30
61386;DHT22;47256;18.904;-99.054;2024-02-23T07:32:19;20.30;80.90
61386;DHT22;47256;18.904;-99.054;2024-02-23T07:34:49;20.10;81.20
61386;DHT22;47256;18.904;-99.054;2024-02-23T07:37:18;20.10;83.00
61386;DHT22;47256;18.904;-99.054;2024-02-23T07:39:49;20.00;82.80
61386;DHT22;47256;18.904;-99.054;2024-02-23T07:42:17;20.00;82.80
61386;DHT22;47256;18.904;-99.054;2024-02-23T07:44:48;20.00;82.10
61386;DHT22;47256;18.904;-99.054;2024-02-23T07:47:20;20.00;81.40
61386;DHT22;47256;18.904;-99.054;2024-02-23T07:49:51;19.90;84.30
61386;DHT22;47256;18.904;-99.054;2024-02-23T07:52:21;19.80;83.90
61386;DHT22;47256;18.904;-99.054;2024-02-23T07:54:52;19.80;84.20
61386;DHT22;47256;18.904;-99.054;2024-02-23T07:57:20;19.80;83.80
61386;DHT22;47256;18.904;-99.054;2024-02-23T07:59:48;19.90;82.60
61386;DHT22;47256;18.904;-99.054;2024-02-23T08:02:18;19.90;81.30
61386;DHT22;47256;18.904;-99.054;2024-02-23T08:04:58;19.90;81.10
61386;DHT22;47256;18.904;-99.054;2024-02-23T08:07:33;19.90;81.20
61386;DHT22;47256;18.904;-99.054;2024-02-23T08:10:03;20.00;80.60
61386;DHT22;47256;18.904;-99.054;2024-02-23T08:12:31;20.00;80.60
61386;DHT22;47256;18.904;-99.054;2024-02-23T08:15:05;20.00;81.00
61386;DHT22;47256;18.904;-99.054;2024-02-23T08:17:33;19.80;81.50
61386;DHT22;47256;18.904;-99.054;2024-02-23T08:20:02;19.80;83.00
61386;DHT22;47256;18.904;-99.054;2024-02-23T08:22:33;19.70;83.90
61386;DHT22;47256;18.904;-99.054;2024-02-23T08:25:03;19.60;84.80
61386;DHT22;47256;18.904;-99.054;2024-02-23T08:27:31;19.60;85.20
61386;DHT22;47256;18.904;-99.054;2024-02-23T08:29:58;19.60;85.30
61386;DHT22;47256;18.904;-99.054;2024-02-23T08:32:27;19.60;85.00
61386;DHT22;47256;18.904;-99.054;2024-02-23T08:35:00;19.60;84.60
61386;DHT22;47256;18.904;-99.054;2024-02-23T08:37:28;19.60;85.80
61386;DHT22;47256;18.904;-99.054;2024-02-23T08:39:55;19.60;85.60
61386;DHT22;47256;18.904;-99.054;2024-02-23T08:42:37;19.60;85.70
61386;DHT22;47256;18.904;-99.054;2024-02-23T08:45:13;19.50;87.30
61386;DHT22;47256;18.904;-99.054;2024-02-23T08:47:47;19.40;87.90
61386;DHT22;47256;18.904;-99.054;2024-02-23T08:50:17;19.40;87.90
61386;DHT22;47256;18.904;-99.054;2024-02-23T08:52:45;19.30;87.90
61386;DHT22;47256;18.904;-99.054;2024-02-23T08:55:13;19.30;88.00
61386;DHT22;47256;18.904;-99.054;2024-02-23T08:57:46;19.30;87.90
61386;DHT22;47256;18.904;-99.054;2024-02-23T09:00:15;19.30;87.80
61386;DHT22;47256;18.904;-99.054;2024-02-23T09:02:51;19.40;87.70
61386;DHT22;47256;18.904;-99.054;2024-02-23T09:05:27;19.40;87.40
61386;DHT22;47256;18.904;-99.054;2024-02-23T09:07:57;19.30;88.40
61386;DHT22;47256;18.904;-99.054;2024-02-23T09:10:27;19.10;87.10
61386;DHT22;47256;18.904;-99.054;2024-02-23T09:13:03;19.10;87.00
61386;DHT22;47256;18.904;-99.054;2024-02-23T09:15:32;19.20;86.60
61386;DHT22;47256;18.904;-99.054;2024-02-23T09:18:00;19.10;87.20
61386;DHT22;47256;18.904;-99.054;2024-02-23T09:20:27;19.00;88.80
61386;DHT22;47256;18.904;-99.054;2024-02-23T09:23:00;19.10;88.70
61386;DHT22;47256;18.904;-99.054;2024-02-23T09:25:27;19.00;88.50
61386;DHT22;47256;18.904;-99.054;2024-02-23T09:28:06;19.10;88.90
61386;DHT22;47256;18.904;-99.054;2024-02-23T09:30:33;19.00;89.60
61386;DHT22;47256;18.904;-99.054;2024-02-23T09:33:09;18.90;89.70
61386;DHT22;47256;18.904;-99.054;2024-02-23T09:35:39;19.00;88.50
61386;DHT22;47256;18.904;-99.054;2024-02-23T09:38:12;19.10;87.80
61386;DHT22;47256;18.904;-99.054;2024-02-23T09:40:47;19.10;87.90
61386;DHT22;47256;18.904;-99.054;2024-02-23T09:43:17;19.10;86.90
61386;DHT22;47256;18.904;-99.054;2024-02-23T09:45:45;19.20;87.10
61386;DHT22;47256;18.904;-99.054;2024-02-23T09:48:18;19.10;87.50
61386;DHT22;47256;18.904;-99.054;2024-02-23T09:50:47;19.00;88.10
61386;DHT22;47256;18.904;-99.054;2024-02-23T09:53:20;18.90;88.20
61386;DHT22;47256;18.904;-99.054;2024-02-23T09:55:53;19.00;88.30
61386;DHT22;47256;18.904;-99.054;2024-02-23T09:58:21;18.90;87.60
61386;DHT22;47256;18.904;-99.054;2024-02-23T10:00:55;18.80;88.00
61386;DHT22;47256;18.904;-99.054;2024-02-23T10:03:28;18.80;87.50
61386;DHT22;47256;18.904;-99.054;2024-02-23T10:06:00;18.90;87.40
61386;DHT22;47256;18.904;-99.054;2024-02-23T10:08:31;18.80;87.20
61386;DHT22;47256;18.904;-99.054;2024-02-23T10:11:02;18.70;88.20
61386;DHT22;47256;18.904;-99.054;2024-02-23T10:13:31;18.60;88.90
61386;DHT22;47256;18.904;-99.054;2024-02-23T10:16:02;18.60;90.10
61386;DHT22;47256;18.904;-99.054;2024-02-23T10:18:38;18.60;89.80
61386;DHT22;47256;18.904;-99.054;2024-02-23T10:21:14;18.60;89.60
61386;DHT22;47256;18.904;-99.054;2024-02-23T10:23:43;18.40;89.10
61386;DHT22;47256;18.904;-99.054;2024-02-23T10:26:14;18.20;88.20
61386;DHT22;47256;18.904;-99.054;2024-02-23T10:28:55;18.20;89.70
61386;DHT22;47256;18.904;-99.054;2024-02-23T10:31:37;18.20;88.80
61386;DHT22;47256;18.904;-99.054;2024-02-23T10:34:12;18.30;87.70
61386;DHT22;47256;18.904;-99.054;2024-02-23T10:36:41;18.30;89.50
61386;DHT22;47256;18.904;-99.054;2024-02-23T10:39:18;18.30;88.80
61386;DHT22;47256;18.904;-99.054;2024-02-23T10:42:03;18.30;87.60
61386;DHT22;47256;18.904;-99.054;2024-02-23T10:44:43;18.30;86.60
61386;DHT22;47256;18.904;-99.054;2024-02-23T10:47:14;18.40;85.40
61386;DHT22;47256;18.904;-99.054;2024-02-23T10:49:42;18.30;87.10
61386;DHT22;47256;18.904;-99.054;2024-02-23T10:52:19;18.20;87.50
61386;DHT22;47256;18.904;-99.054;2024-02-23T10:54:48;18.20;88.00
61386;DHT22;47256;18.904;-99.054;2024-02-23T10:57:21;18.30;88.50
61386;DHT22;47256;18.904;-99.054;2024-02-23T10:59:48;18.20;87.60
61386;DHT22;47256;18.904;-99.054;2024-02-23T11:02:18;18.10;87.60
61386;DHT22;47256;18.904;-99.054;2024-02-23T11:04:52;18.20;86.80
61386;DHT22;47256;18.904;-99.054;2024-02-23T11:07:29;18.20;86.60
61386;DHT22;47256;18.904;-99.054;2024-02-23T11:10:00;18.20;86.00
61386;DHT22;47256;18.904;-99.054;2024-02-23T11:12:29;18.20;88.10
61386;DHT22;47256;18.904;-99.054;2024-02-23T11:14:58;18.10;88.40
61386;DHT22;47256;18.904;-99.054;2024-02-23T11:17:32;18.10;87.90
61386;DHT22;47256;18.904;-99.054;2024-02-23T11:20:04;17.90;88.50
61386;DHT22;47256;18.904;-99.054;2024-02-23T11:22:36;17.90;88.60
61386;DHT22;47256;18.904;-99.054;2024-02-23T11:25:06;18.00;87.60
61386;DHT22;47256;18.904;-99.054;2024-02-23T11:27:36;18.00;87.70
61386;DHT22;47256;18.904;-99.054;2024-02-23T11:30:09;18.00;87.20
61386;DHT22;47256;18.904;-99.054;2024-02-23T11:32:50;18.10;87.40
61386;DHT22;47256;18.904;-99.054;2024-02-23T11:35:25;18.00;87.70
61386;DHT22;47256;18.904;-99.054;2024-02-23T11:37:58;18.00;89.00
61386;DHT22;47256;18.904;-99.054;2024-02-23T11:40:29;18.00;88.70
61386;DHT22;47256;18.904;-99.054;2024-02-23T11:42:58;18.00;87.70
61386;DHT22;47256;18.904;-99.054;2024-02-23T11:45:29;18.00;87.70
61386;DHT22;47256;18.904;-99.054;2024-02-23T11:48:00;17.90;88.30
61386;DHT22;47256;18.904;-99.054;2024-02-23T11:50:32;17.80;88.90
61386;DHT22;47256;18.904;-99.054;2024-02-23T11:53:00;17.70;89.80
61386;DHT22;47256;18.904;-99.054;2024-02-23T11:55:31;17.60;87.90
61386;DHT22;47256;18.904;-99.054;2024-02-23T11:58:04;17.60;88.50
61386;DHT22;47256;18.904;-99.054;2024-02-23T12:00:40;17.70;88.40
61386;DHT22;47256;18.904;-99.054;2024-02-23T12:03:17;17.60;88.00
61386;DHT22;47256;18.904;-99.054;2024-02-23T12:05:44;17.50;89.00
61386;DHT22;47256;18.904;-99.054;2024-02-23T12:08:21;17.50;89.00
61386;DHT22;47256;18.904;-99.054;2024-02-23T12:11:06;17.50;89.50
61386;DHT22;47256;18.904;-99.054;2024-02-23T12:13:39;17.60;89.10
61386;DHT22;47256;18.904;-99.054;2024-02-23T12:16:09;17.50;89.50
61386;DHT22;47256;18.904;-99.054;2024-02-23T12:18:39;17.40;89.90
61386;DHT22;47256;18.904;-99.054;2024-02-23T12:21:10;17.30;89.70
61386;DHT22;47256;18.904;-99.054;2024-02-23T12:23:55;17.30;89.00
61386;DHT22;47256;18.904;-99.054;2024-02-23T12:26:23;17.30;88.90
61386;DHT22;47256;18.904;-99.054;2024-02-23T12:29:03;17.20;89.10
61386;DHT22;47256;18.904;-99.054;2024-02-23T12:31:34;17.20;89.10
61386;DHT22;47256;18.904;-99.054;2024-02-23T12:34:04;17.10;89.50
61386;DHT22;47256;18.904;-99.054;2024-02-23T12:36:36;17.20;89.70
61386;DHT22;47256;18.904;-99.054;2024-02-23T12:39:04;17.20;90.70
61386;DHT22;47256;18.904;-99.054;2024-02-23T12:41:36;17.20;90.50
61386;DHT22;47256;18.904;-99.054;2024-02-23T12:44:06;17.10;90.70
61386;DHT22;47256;18.904;-99.054;2024-02-23T12:46:37;17.00;90.70
61386;DHT22;47256;18.904;-99.054;2024-02-23T12:49:11;17.00;90.60
61386;DHT22;47256;18.904;-99.054;2024-02-23T12:51:48;17.10;90.20
61386;DHT22;47256;18.904;-99.054;2024-02-23T12:54:19;17.20;90.00
61386;DHT22;47256;18.904;-99.054;2024-02-23T12:56:48;17.20;90.00
61386;DHT22;47256;18.904;-99.054;2024-02-23T12:59:36;17.30;89.60
61386;DHT22;47256;18.904;-99.054;2024-02-23T13:02:07;17.30;90.40
61386;DHT22;47256;18.904;-99.054;2024-02-23T13:04:39;17.30;90.10
61386;DHT22;47256;18.904;-99.054;2024-02-23T13:07:09;17.30;90.40
61386;DHT22;47256;18.904;-99.054;2024-02-23T13:09:39;17.30;90.40
61386;DHT22;47256;18.904;-99.054;2024-02-23T13:12:09;17.30;90.20
61386;DHT22;47256;18.904;-99.054;2024-02-23T13:14:42;17.30;90.50
61386;DHT22;47256;18.904;-99.054;2024-02-23T13:17:09;17.30;91.00
61386;DHT22;47256;18.904;-99.054;2024-02-23T13:19:43;17.20;91.00
61386;DHT22;47256;18.904;-99.054;2024-02-23T13:22:10;17.20;91.70
61386;DHT22;47256;18.904;-99.054;2024-02-23T13:24:40;17.30;91.40
61386;DHT22;47256;18.904;-99.054;2024-02-23T13:27:19;17.30;91.00
61386;DHT22;47256;18.904;-99.054;2024-02-23T13:30:02;17.30;91.30
61386;DHT22;47256;18.904;-99.054;2024-02-23T13:32:32;17.30;91.50
61386;DHT22;47256;18.904;-99.054;2024-02-23T13:35:08;17.30;91.90
61386;DHT22;47256;18.904;-99.054;2024-02-23T13:37:39;17.30;91.40
61386;DHT22;47256;18.904;-99.054;2024-02-23T13:40:09;17.40;91.00
61386;DHT22;47256;18.904;-99.054;2024-02-23T13:42:40;17.40;92.00
61386;DHT22;47256;18.904;-99.054;2024-02-23T13:45:11;17.40;92.00
61386;DHT22;47256;18.904;-99.054;2024-02-23T13:48:01;17.50;92.10
61386;DHT22;47256;18.904;-99.054;2024-02-23T13:50:49;17.60;91.90
61386;DHT22;47256;18.904;-99.054;2024-02-23T13:53:36;17.60;91.80
61386;DHT22;47256;18.904;-99.054;2024-02-23T13:56:24;17.70;92.30
61386;DHT22;47256;18.904;-99.054;2024-02-23T13:59:12;17.80;92.30
61386;DHT22;47256;18.904;-99.054;2024-02-23T14:02:15;17.80;92.50
61386;DHT22;47256;18.904;-99.054;2024-02-23T14:05:01;17.90;92.40
61386;DHT22;47256;18.904;-99.054;2024-02-23T14:07:33;18.00;92.10
61386;DHT22;47256;18.904;-99.054;2024-02-23T14:10:02;18.20;92.20
61386;DHT22;47256;18.904;-99.054;2024-02-23T14:12:32;18.30;92.20
61386;DHT22;47256;18.904;-99.054;2024-02-23T14:15:02;18.50;92.50
61386;DHT22;47256;18.904;-99.054;2024-02-23T14:17:29;18.50;92.10
61386;DHT22;47256;18.904;-99.054;2024-02-23T14:19:57;18.60;91.90
61386;DHT22;47256;18.904;-99.054;2024-02-23T14:22:30;18.60;92.20
61386;DHT22;47256;18.904;-99.054;2024-02-23T14:25:01;18.70;92.30
61386;DHT22;47256;18.904;-99.054;2024-02-23T14:27:33;18.90;92.40
61386;DHT22;47256;18.904;-99.054;2024-02-23T14:30:01;19.10;92.30
61386;DHT22;47256;18.904;-99.054;2024-02-23T14:32:31;19.20;92.40
61386;DHT22;47256;18.904;-99.054;2024-02-23T14:34:59;19.40;92.00
61386;DHT22;47256;18.904;-99.054;2024-02-23T14:37:36;19.50;92.20
61386;DHT22;47256;18.904;-99.054;2024-02-23T14:40:06;19.60;91.60
61386;DHT22;47256;18.904;-99.054;2024-02-23T14:42:41;19.70;91.70
61386;DHT22;47256;18.904;-99.054;2024-02-23T14:45:20;19.80;91.50
61386;DHT22;47256;18.904;-99.054;2024-02-23T14:47:56;19.90;91.60
61386;DHT22;47256;18.904;-99.054;2024-02-23T14:50:38;20.10;91.10
61386;DHT22;47256;18.904;-99.054;2024-02-23T14:53:15;20.30;90.50
61386;DHT22;47256;18.904;-99.054;2024-02-23T14:55:45;20.50;90.40
61386;DHT22;47256;18.904;-99.054;2024-02-23T14:58:15;20.60;90.50
61386;DHT22;47256;18.904;-99.054;2024-02-23T15:00:45;20.80;90.80
61386;DHT22;47256;18.904;-99.054;2024-02-23T15:03:14;21.00;90.30
61386;DHT22;47256;18.904;-99.054;2024-02-23T15:05:45;21.10;90.10
61386;DHT22;47256;18.904;-99.054;2024-02-23T15:08:20;21.40;89.20
61386;DHT22;47256;18.904;-99.054;2024-02-23T15:10:53;21.50;86.60
61386;DHT22;47256;18.904;-99.054;2024-02-23T15:13:28;21.70;85.90
61386;DHT22;47256;18.904;-99.054;2024-02-23T15:15:55;21.90;85.00
61386;DHT22;47256;18.904;-99.054;2024-02-23T15:18:32;22.10;84.30
61386;DHT22;47256;18.904;-99.054;2024-02-23T15:21:02;22.20;79.50
61386;DHT22;47256;18.904;-99.054;2024-02-23T15:23:38;22.40;80.70
61386;DHT22;47256;18.904;-99.054;2024-02-23T15:26:07;22.60;79.50
61386;DHT22;47256;18.904;-99.054;2024-02-23T15:28:34;22.80;80.20
61386;DHT22;47256;18.904;-99.054;2024-02-23T15:31:19;23.00;79.20